Time;durP1;ratioP1;P1;durP2;ratioP2;P2;SDS_P1;SDS_P2;PMS_P1;PMS_P2;Temp;Humidity;BMP_temperature;BMP_pressure;BME280_temperature;BME280_humidity;BME280_pressure;Samples;Min_cycle;Max_cycle;Signal;HPM_P1;HPM_P2
2023/03/12 00:00:01;;;;;;;2.7;2.6;;;;;;;2.4;100.0;100940;;;;
2023/03/12 00:01:00;;;;;;;2.7;2.6;;;;;;;2.4;100.0;100940;;;;
2023/03/12 00:02:00;;;;;;;2.7;2.6;;;;;;;2.5;100.0;100940;;;;
2023/03/12 00:03:00;;;;;;;2.4;2.4;;;;;;;2.5;100.0;100940;;;;
2023/03/12 00:04:01;;;;;;;2.4;2.4;;;;;;;2.4;100.0;100940;;;;
2023/03/12 00:05:00;;;;;;;2.4;2.4;;;;;;;2.4;100.0;100940;;;;
2023/03/12 00:06:10;;;;;;;2.4;2.4;;;;;;;2.4;100.0;100940;;;;
2023/03/12 00:07:01;;;;;;;2.4;2.4;;;;;;;2.4;100.0;100940;;;;
2023/03/12 00:08:00;;;;;;;2.4;2.4;;;;;;;2.5;100.0;100940;;;;
2023/03/12 00:09:00;;;;;;;2.4;2.4;;;;;;;2.5;100.0;100940;;;;
2023/03/12 00:10:01;;;;;;;2.4;2.4;;;;;;;2.5;100.0;100940;;;;
2023/03/12 00:11:04;;;;;;;2.4;2.4;;;;;;;2.5;100.0;100940;;;;
2023/03/12 00:12:00;;;;;;;2.4;2.4;;;;;;;2.5;100.0;100930;;;;
2023/03/12 00:13:00;;;;;;;2.4;2.4;;;;;;;2.5;100.0;100930;;;;
2023/03/12 00:14:00;;;;;;;2.4;2.4;;;;;;;2.4;100.0;100930;;;;
2023/03/12 00:15:00;;;;;;;2.4;2.4;;;;;;;2.4;100.0;100930;;;;
2023/03/12 00:16:02;;;;;;;2.4;2.4;;;;;;;2.3;100.0;100940;;;;
2023/03/12 00:17:00;;;;;;;2.4;2.4;;;;;;;2.3;100.0;100940;;;;
2023/03/12 00:18:00;;;;;;;2.4;2.4;;;;;;;2.4;100.0;100930;;;;
2023/03/12 00:19:00;;;;;;;2.4;2.4;;;;;;;2.4;100.0;100930;;;;
2023/03/12 00:20:00;;;;;;;2.4;2.4;;;;;;;2.4;100.0;100930;;;;
2023/03/12 00:21:00;;;;;;;2.4;2.4;;;;;;;2.4;100.0;100930;;;;
2023/03/12 00:22:00;;;;;;;2.4;2.4;;;;;;;2.4;100.0;100920;;;;
2023/03/12 00:23:01;;;;;;;3.0;2.9;;;;;;;2.4;100.0;100920;;;;
2023/03/12 00:24:00;;;;;;;3.0;2.9;;;;;;;2.4;100.0;100920;;;;
2023/03/12 00:25:01;;;;;;;3.0;2.9;;;;;;;2.4;100.0;100920;;;;
2023/03/12 00:26:02;;;;;;;3.0;2.9;;;;;;;2.5;100.0;100920;;;;
2023/03/12 00:27:00;;;;;;;3.0;2.9;;;;;;;2.5;100.0;100920;;;;
2023/03/12 00:28:00;;;;;;;3.0;2.9;;;;;;;2.5;100.0;100910;;;;
2023/03/12 00:29:00;;;;;;;3.0;2.9;;;;;;;2.5;100.0;100910;;;;
2023/03/12 00:30:00;;;;;;;3.0;2.9;;;;;;;2.4;100.0;100920;;;;
2023/03/12 00:31:01;;;;;;;3.0;2.9;;;;;;;2.4;100.0;100920;;;;
2023/03/12 00:32:00;;;;;;;3.0;2.9;;;;;;;2.5;100.0;100910;;;;
2023/03/12 00:33:00;;;;;;;3.0;2.9;;;;;;;2.5;100.0;100910;;;;
2023/03/12 00:34:01;;;;;;;3.0;2.9;;;;;;;2.5;100.0;100900;;;;
2023/03/12 00:35:00;;;;;;;3.0;2.9;;;;;;;2.5;100.0;100900;;;;
2023/03/12 00:36:00;;;;;;;3.0;2.9;;;;;;;2.4;100.0;100900;;;;
2023/03/12 00:37:00;;;;;;;3.0;2.9;;;;;;;2.4;100.0;100900;;;;
2023/03/12 00:38:00;;;;;;;3.0;2.9;;;;;;;2.3;100.0;100900;;;;
2023/03/12 00:39:00;;;;;;;3.0;2.9;;;;;;;2.3;100.0;100900;;;;
2023/03/12 00:40:00;;;;;;;3.0;2.9;;;;;;;2.4;100.0;100900;;;;
2023/03/12 00:41:00;;;;;;;3.0;2.9;;;;;;;2.4;100.0;100900;;;;
2023/03/12 00:42:00;;;;;;;3.0;2.9;;;;;;;2.4;100.0;100890;;;;
2023/03/12 00:43:00;;;;;;;2.3;2.3;;;;;;;2.4;100.0;100890;;;;
2023/03/12 00:44:00;;;;;;;2.3;2.3;;;;;;;2.4;100.0;100890;;;;
2023/03/12 00:45:00;;;;;;;2.3;2.3;;;;;;;2.4;100.0;100890;;;;
2023/03/12 00:46:00;;;;;;;2.3;2.3;;;;;;;2.4;100.0;100890;;;;
2023/03/12 00:47:00;;;;;;;2.3;2.3;;;;;;;2.4;100.0;100890;;;;
2023/03/12 00:48:00;;;;;;;2.3;2.3;;;;;;;2.4;100.0;100890;;;;
2023/03/12 00:49:00;;;;;;;2.3;2.3;;;;;;;2.4;100.0;100890;;;;
2023/03/12 00:50:00;;;;;;;2.3;2.3;;;;;;;2.4;100.0;100890;;;;
2023/03/12 00:51:00;;;;;;;2.3;2.3;;;;;;;2.4;100.0;100890;;;;
2023/03/12 00:52:00;;;;;;;2.3;2.3;;;;;;;2.4;100.0;100890;;;;
2023/03/12 00:53:00;;;;;;;2.3;2.3;;;;;;;2.4;100.0;100890;;;;
2023/03/12 00:54:00;;;;;;;2.3;2.3;;;;;;;2.3;100.0;100900;;;;
2023/03/12 00:55:00;;;;;;;2.3;2.3;;;;;;;2.3;100.0;100900;;;;
2023/03/12 00:56:00;;;;;;;2.3;2.3;;;;;;;2.4;100.0;100890;;;;
2023/03/12 00:57:00;;;;;;;2.3;2.3;;;;;;;2.4;100.0;100890;;;;
2023/03/12 00:58:00;;;;;;;2.3;2.3;;;;;;;2.3;100.0;100880;;;;
2023/03/12 00:59:00;;;;;;;2.3;2.3;;;;;;;2.3;100.0;100880;;;;
2023/03/12 01:00:00;;;;;;;2.3;2.3;;;;;;;2.3;100.0;100880;;;;
2023/03/12 01:01:00;;;;;;;2.3;2.3;;;;;;;2.3;100.0;100880;;;;
2023/03/12 01:02:00;;;;;;;2.3;2.3;;;;;;;2.4;100.0;100880;;;;
2023/03/12 01:03:00;;;;;;;3.3;3.2;;;;;;;2.4;100.0;100880;;;;
2023/03/12 01:04:00;;;;;;;3.3;3.2;;;;;;;2.3;100.0;100880;;;;
2023/03/12 01:05:00;;;;;;;3.3;3.2;;;;;;;2.3;100.0;100880;;;;
2023/03/12 01:06:00;;;;;;;3.3;3.2;;;;;;;2.3;100.0;100880;;;;
2023/03/12 01:07:00;;;;;;;3.3;3.2;;;;;;;2.3;100.0;100880;;;;
2023/03/12 01:08:00;;;;;;;3.3;3.2;;;;;;;2.3;100.0;100880;;;;
2023/03/12 01:09:04;;;;;;;3.3;3.2;;;;;;;2.3;100.0;100880;;;;
2023/03/12 01:10:00;;;;;;;3.3;3.2;;;;;;;2.4;100.0;100880;;;;
2023/03/12 01:11:00;;;;;;;3.3;3.2;;;;;;;2.4;100.0;100880;;;;
2023/03/12 01:12:00;;;;;;;3.3;3.2;;;;;;;2.4;100.0;100880;;;;
2023/03/12 01:13:00;;;;;;;3.3;3.2;;;;;;;2.4;100.0;100880;;;;
2023/03/12 01:14:01;;;;;;;3.3;3.2;;;;;;;2.3;100.0;100870;;;;
2023/03/12 01:15:00;;;;;;;3.3;3.2;;;;;;;2.3;100.0;100870;;;;
2023/03/12 01:16:00;;;;;;;3.3;3.2;;;;;;;2.3;100.0;100880;;;;
2023/03/12 01:17:00;;;;;;;3.3;3.2;;;;;;;2.3;100.0;100880;;;;
2023/03/12 01:18:00;;;;;;;3.3;3.2;;;;;;;2.4;100.0;100870;;;;
2023/03/12 01:19:02;;;;;;;3.3;3.2;;;;;;;2.4;100.0;100870;;;;
2023/03/12 01:20:00;;;;;;;3.3;3.2;;;;;;;2.4;100.0;100870;;;;
2023/03/12 01:21:00;;;;;;;3.3;3.2;;;;;;;2.4;100.0;100870;;;;
2023/03/12 01:22:00;;;;;;;3.3;3.2;;;;;;;2.4;100.0;100860;;;;
2023/03/12 01:23:00;;;;;;;2.7;2.6;;;;;;;2.4;100.0;100860;;;;
2023/03/12 01:24:00;;;;;;;2.7;2.6;;;;;;;2.4;100.0;100860;;;;
2023/03/12 01:25:00;;;;;;;2.7;2.6;;;;;;;2.4;100.0;100860;;;;
2023/03/12 01:26:00;;;;;;;2.7;2.6;;;;;;;2.3;100.0;100860;;;;
2023/03/12 01:27:00;;;;;;;2.7;2.6;;;;;;;2.3;100.0;100860;;;;
2023/03/12 01:28:01;;;;;;;2.7;2.6;;;;;;;2.4;100.0;100860;;;;
2023/03/12 01:29:00;;;;;;;2.7;2.6;;;;;;;2.4;100.0;100860;;;;
2023/03/12 01:30:00;;;;;;;2.7;2.6;;;;;;;2.4;100.0;100860;;;;
2023/03/12 01:31:08;;;;;;;2.7;2.6;;;;;;;2.4;100.0;100860;;;;
2023/03/12 01:32:00;;;;;;;2.7;2.6;;;;;;;2.4;100.0;100850;;;;
2023/03/12 01:33:00;;;;;;;2.7;2.6;;;;;;;2.4;100.0;100850;;;;
2023/03/12 01:34:00;;;;;;;2.7;2.6;;;;;;;2.4;100.0;100860;;;;
2023/03/12 01:35:00;;;;;;;2.7;2.6;;;;;;;2.4;100.0;100860;;;;
2023/03/12 01:36:00;;;;;;;2.7;2.6;;;;;;;2.5;100.0;100860;;;;
2023/03/12 01:37:00;;;;;;;2.7;2.6;;;;;;;2.5;100.0;100860;;;;
2023/03/12 01:38:00;;;;;;;2.7;2.6;;;;;;;2.5;100.0;100860;;;;
2023/03/12 01:39:00;;;;;;;2.7;2.6;;;;;;;2.5;100.0;100860;;;;
2023/03/12 01:40:00;;;;;;;2.7;2.6;;;;;;;2.5;100.0;100870;;;;
2023/03/12 01:41:00;;;;;;;2.7;2.6;;;;;;;2.5;100.0;100870;;;;
2023/03/12 01:42:00;;;;;;;2.7;2.6;;;;;;;2.5;100.0;100860;;;;
2023/03/12 01:43:10;;;;;;;2.7;2.6;;;;;;;2.5;100.0;100860;;;;
2023/03/12 01:44:02;;;;;;;2.7;2.6;;;;;;;2.4;100.0;100860;;;;
2023/03/12 01:45:02;;;;;;;2.7;2.6;;;;;;;2.4;100.0;100860;;;;
2023/03/12 01:46:04;;;;;;;2.7;2.6;;;;;;;2.4;100.0;100850;;;;
2023/03/12 01:47:00;;;;;;;2.7;2.6;;;;;;;2.4;100.0;100850;;;;
2023/03/12 01:48:00;;;;;;;2.7;2.6;;;;;;;2.4;100.0;100840;;;;
2023/03/12 01:49:00;;;;;;;2.7;2.6;;;;;;;2.4;100.0;100840;;;;
2023/03/12 01:50:02;;;;;;;2.7;2.6;;;;;;;2.3;100.0;100850;;;;
2023/03/12 01:51:01;;;;;;;2.7;2.6;;;;;;;2.3;100.0;100850;;;;
2023/03/12 01:52:02;;;;;;;2.7;2.6;;;;;;;2.4;100.0;100840;;;;
2023/03/12 01:53:00;;;;;;;2.7;2.6;;;;;;;2.4;100.0;100840;;;;
2023/03/12 01:54:04;;;;;;;2.7;2.6;;;;;;;2.5;100.0;100840;;;;
2023/03/12 01:55:04;;;;;;;2.7;2.6;;;;;;;2.5;100.0;100840;;;;
2023/03/12 01:56:00;;;;;;;2.7;2.6;;;;;;;2.4;100.0;100830;;;;
2023/03/12 01:57:02;;;;;;;2.7;2.6;;;;;;;2.4;100.0;100830;;;;
2023/03/12 01:58:01;;;;;;;2.7;2.6;;;;;;;2.4;100.0;100830;;;;
2023/03/12 01:59:04;;;;;;;2.7;2.6;;;;;;;2.4;100.0;100830;;;;
2023/03/12 02:00:07;;;;;;;2.7;2.6;;;;;;;2.5;100.0;100830;;;;
2023/03/12 02:01:00;;;;;;;2.7;2.6;;;;;;;2.5;100.0;100830;;;;
2023/03/12 02:02:01;;;;;;;2.7;2.6;;;;;;;2.4;100.0;100830;;;;
2023/03/12 02:03:04;;;;;;;2.3;2.3;;;;;;;2.4;100.0;100830;;;;
2023/03/12 02:04:00;;;;;;;2.3;2.3;;;;;;;2.5;100.0;100820;;;;
2023/03/12 02:05:05;;;;;;;2.3;2.3;;;;;;;2.5;100.0;100820;;;;
2023/03/12 02:06:07;;;;;;;2.3;2.3;;;;;;;2.5;100.0;100830;;;;
2023/03/12 02:07:09;;;;;;;2.3;2.3;;;;;;;2.5;100.0;100830;;;;
2023/03/12 02:08:00;;;;;;;2.3;2.3;;;;;;;2.5;100.0;100820;;;;
2023/03/12 02:09:02;;;;;;;2.3;2.3;;;;;;;2.5;100.0;100820;;;;
2023/03/12 02:10:01;;;;;;;2.3;2.3;;;;;;;2.4;100.0;100830;;;;
2023/03/12 02:11:00;;;;;;;2.3;2.3;;;;;;;2.4;100.0;100830;;;;
2023/03/12 02:12:01;;;;;;;2.3;2.3;;;;;;;2.4;100.0;100820;;;;
2023/03/12 02:13:00;;;;;;;2.3;2.3;;;;;;;2.4;100.0;100820;;;;
2023/03/12 02:14:01;;;;;;;2.3;2.3;;;;;;;2.5;100.0;100820;;;;
2023/03/12 02:15:01;;;;;;;2.3;2.3;;;;;;;2.5;100.0;100820;;;;
2023/03/12 02:16:00;;;;;;;2.3;2.3;;;;;;;2.5;100.0;100820;;;;
2023/03/12 02:17:00;;;;;;;2.3;2.3;;;;;;;2.5;100.0;100820;;;;
2023/03/12 02:18:02;;;;;;;2.3;2.3;;;;;;;2.5;100.0;100820;;;;
2023/03/12 02:19:01;;;;;;;2.3;2.3;;;;;;;2.5;100.0;100820;;;;
2023/03/12 02:20:10;;;;;;;2.3;2.3;;;;;;;2.5;100.0;100820;;;;
2023/03/12 02:21:10;;;;;;;2.3;2.3;;;;;;;2.5;100.0;100820;;;;
2023/03/12 02:22:00;;;;;;;2.3;2.3;;;;;;;2.5;100.0;100820;;;;
2023/03/12 02:23:10;;;;;;;2.6;2.5;;;;;;;2.5;100.0;100820;;;;
2023/03/12 02:24:10;;;;;;;2.6;2.5;;;;;;;2.4;100.0;100820;;;;
2023/03/12 02:25:02;;;;;;;2.6;2.5;;;;;;;2.4;100.0;100820;;;;
2023/03/12 02:26:02;;;;;;;2.6;2.5;;;;;;;2.4;100.0;100810;;;;
2023/03/12 02:27:00;;;;;;;2.6;2.5;;;;;;;2.4;100.0;100810;;;;
2023/03/12 02:28:02;;;;;;;2.6;2.5;;;;;;;2.5;100.0;100810;;;;
2023/03/12 02:29:00;;;;;;;2.6;2.5;;;;;;;2.5;100.0;100810;;;;
2023/03/12 02:30:01;;;;;;;2.6;2.5;;;;;;;2.5;100.0;100800;;;;
2023/03/12 02:31:02;;;;;;;2.6;2.5;;;;;;;2.5;100.0;100800;;;;
2023/03/12 02:32:03;;;;;;;2.6;2.5;;;;;;;2.5;100.0;100800;;;;
2023/03/12 02:33:01;;;;;;;2.6;2.5;;;;;;;2.5;100.0;100800;;;;
2023/03/12 02:34:00;;;;;;;2.6;2.5;;;;;;;2.6;100.0;100800;;;;
2023/03/12 02:35:00;;;;;;;2.6;2.5;;;;;;;2.6;100.0;100800;;;;
2023/03/12 02:36:00;;;;;;;2.6;2.5;;;;;;;2.5;100.0;100800;;;;
2023/03/12 02:37:00;;;;;;;2.6;2.5;;;;;;;2.5;100.0;100800;;;;
2023/03/12 02:38:01;;;;;;;2.6;2.5;;;;;;;2.5;100.0;100800;;;;
2023/03/12 02:39:01;;;;;;;2.6;2.5;;;;;;;2.5;100.0;100800;;;;
2023/03/12 02:40:05;;;;;;;2.6;2.5;;;;;;;2.5;100.0;100790;;;;
2023/03/12 02:41:02;;;;;;;2.6;2.5;;;;;;;2.5;100.0;100790;;;;
2023/03/12 02:42:00;;;;;;;2.6;2.5;;;;;;;2.5;100.0;100790;;;;
2023/03/12 02:43:01;;;;;;;2.5;2.5;;;;;;;2.5;100.0;100790;;;;
2023/03/12 02:44:00;;;;;;;2.5;2.5;;;;;;;2.5;100.0;100780;;;;
2023/03/12 02:45:02;;;;;;;2.5;2.5;;;;;;;2.5;100.0;100780;;;;
2023/03/12 02:46:00;;;;;;;2.5;2.5;;;;;;;2.4;100.0;100780;;;;
2023/03/12 02:47:00;;;;;;;2.5;2.5;;;;;;;2.4;100.0;100780;;;;
2023/03/12 02:48:01;;;;;;;2.5;2.5;;;;;;;2.4;100.0;100780;;;;
2023/03/12 02:49:01;;;;;;;2.5;2.5;;;;;;;2.4;100.0;100780;;;;
2023/03/12 02:50:00;;;;;;;2.5;2.5;;;;;;;2.5;100.0;100780;;;;
2023/03/12 02:51:02;;;;;;;2.5;2.5;;;;;;;2.5;100.0;100780;;;;
2023/03/12 02:52:01;;;;;;;2.5;2.5;;;;;;;2.5;100.0;100780;;;;
2023/03/12 02:53:00;;;;;;;2.5;2.5;;;;;;;2.5;100.0;100780;;;;
2023/03/12 02:54:00;;;;;;;2.5;2.5;;;;;;;2.4;100.0;100770;;;;
2023/03/12 02:55:01;;;;;;;2.5;2.5;;;;;;;2.4;100.0;100770;;;;
2023/03/12 02:56:00;;;;;;;2.5;2.5;;;;;;;2.3;100.0;100770;;;;
2023/03/12 02:57:00;;;;;;;2.5;2.5;;;;;;;2.3;100.0;100770;;;;
2023/03/12 02:58:00;;;;;;;2.5;2.5;;;;;;;2.5;100.0;100770;;;;
2023/03/12 02:59:04;;;;;;;2.5;2.5;;;;;;;2.5;100.0;100770;;;;
2023/03/12 03:00:00;;;;;;;2.5;2.5;;;;;;;2.5;100.0;100770;;;;
2023/03/12 03:01:00;;;;;;;2.5;2.5;;;;;;;2.5;100.0;100770;;;;
2023/03/12 03:02:00;;;;;;;2.4;2.4;;;;;;;2.5;100.0;100780;;;;
2023/03/12 03:03:00;;;;;;;2.4;2.4;;;;;;;2.5;100.0;100780;;;;
2023/03/12 03:04:01;;;;;;;2.4;2.4;;;;;;;2.5;100.0;100770;;;;
2023/03/12 03:05:00;;;;;;;2.4;2.4;;;;;;;2.5;100.0;100770;;;;
2023/03/12 03:06:00;;;;;;;2.4;2.4;;;;;;;2.4;100.0;100770;;;;
2023/03/12 03:07:00;;;;;;;2.4;2.4;;;;;;;2.4;100.0;100770;;;;
2023/03/12 03:08:00;;;;;;;2.4;2.4;;;;;;;2.4;100.0;100770;;;;
2023/03/12 03:09:00;;;;;;;2.4;2.4;;;;;;;2.4;100.0;100770;;;;
2023/03/12 03:10:03;;;;;;;2.4;2.4;;;;;;;2.4;100.0;100770;;;;
2023/03/12 03:11:01;;;;;;;2.4;2.4;;;;;;;2.4;100.0;100770;;;;
2023/03/12 03:12:00;;;;;;;2.4;2.4;;;;;;;2.5;100.0;100770;;;;
2023/03/12 03:13:00;;;;;;;2.4;2.4;;;;;;;2.5;100.0;100770;;;;
2023/03/12 03:14:02;;;;;;;2.4;2.4;;;;;;;2.5;100.0;100770;;;;
2023/03/12 03:15:00;;;;;;;2.4;2.4;;;;;;;2.5;100.0;100770;;;;
2023/03/12 03:16:02;;;;;;;2.4;2.4;;;;;;;2.5;100.0;100770;;;;
2023/03/12 03:17:00;;;;;;;2.4;2.4;;;;;;;2.5;100.0;100770;;;;
2023/03/12 03:18:02;;;;;;;2.4;2.4;;;;;;;2.4;100.0;100760;;;;
2023/03/12 03:19:00;;;;;;;2.4;2.4;;;;;;;2.4;100.0;100760;;;;
2023/03/12 03:20:00;;;;;;;2.4;2.4;;;;;;;2.4;100.0;100760;;;;
2023/03/12 03:21:03;;;;;;;2.4;2.4;;;;;;;2.4;100.0;100760;;;;
2023/03/12 03:22:00;;;;;;;2.8;2.7;;;;;;;2.5;100.0;100770;;;;
2023/03/12 03:23:00;;;;;;;2.8;2.7;;;;;;;2.5;100.0;100770;;;;
2023/03/12 03:24:00;;;;;;;2.8;2.7;;;;;;;2.5;100.0;100770;;;;
2023/03/12 03:25:00;;;;;;;2.8;2.7;;;;;;;2.5;100.0;100770;;;;
2023/03/12 03:26:00;;;;;;;2.8;2.7;;;;;;;2.5;100.0;100770;;;;
2023/03/12 03:27:00;;;;;;;2.8;2.7;;;;;;;2.5;100.0;100770;;;;
2023/03/12 03:28:00;;;;;;;2.8;2.7;;;;;;;2.5;100.0;100770;;;;
2023/03/12 03:29:00;;;;;;;2.8;2.7;;;;;;;2.5;100.0;100770;;;;
2023/03/12 03:30:01;;;;;;;2.8;2.7;;;;;;;2.5;100.0;100770;;;;
2023/03/12 03:31:01;;;;;;;2.8;2.7;;;;;;;2.5;100.0;100770;;;;
2023/03/12 03:32:00;;;;;;;2.8;2.7;;;;;;;2.6;100.0;100760;;;;
2023/03/12 03:33:00;;;;;;;2.8;2.7;;;;;;;2.6;100.0;100760;;;;
2023/03/12 03:34:00;;;;;;;2.8;2.7;;;;;;;2.5;100.0;100760;;;;
2023/03/12 03:35:00;;;;;;;2.8;2.7;;;;;;;2.5;100.0;100760;;;;
2023/03/12 03:36:01;;;;;;;2.8;2.7;;;;;;;2.5;100.0;100760;;;;
2023/03/12 03:37:00;;;;;;;2.8;2.7;;;;;;;2.5;100.0;100760;;;;
2023/03/12 03:38:01;;;;;;;2.8;2.7;;;;;;;2.5;100.0;100760;;;;
2023/03/12 03:39:00;;;;;;;2.8;2.7;;;;;;;2.5;100.0;100760;;;;
2023/03/12 03:40:00;;;;;;;2.8;2.7;;;;;;;2.6;100.0;100760;;;;
2023/03/12 03:41:00;;;;;;;2.8;2.7;;;;;;;2.6;100.0;100760;;;;
2023/03/12 03:42:00;;;;;;;2.2;2.2;;;;;;;2.6;100.0;100760;;;;
2023/03/12 03:43:00;;;;;;;2.2;2.2;;;;;;;2.6;100.0;100760;;;;
2023/03/12 03:44:04;;;;;;;2.2;2.2;;;;;;;2.7;100.0;100760;;;;
2023/03/12 03:45:00;;;;;;;2.2;2.2;;;;;;;2.7;100.0;100760;;;;
2023/03/12 03:46:03;;;;;;;2.2;2.2;;;;;;;2.6;100.0;100760;;;;
2023/03/12 03:47:01;;;;;;;2.2;2.2;;;;;;;2.6;100.0;100760;;;;
2023/03/12 03:48:00;;;;;;;2.2;2.2;;;;;;;2.7;100.0;100760;;;;
2023/03/12 03:49:01;;;;;;;2.2;2.2;;;;;;;2.7;100.0;100760;;;;
2023/03/12 03:50:00;;;;;;;2.2;2.2;;;;;;;2.6;100.0;100750;;;;
2023/03/12 03:51:02;;;;;;;2.2;2.2;;;;;;;2.6;100.0;100750;;;;
2023/03/12 03:52:00;;;;;;;2.2;2.2;;;;;;;2.6;100.0;100750;;;;
2023/03/12 03:53:00;;;;;;;2.2;2.2;;;;;;;2.6;100.0;100750;;;;
2023/03/12 03:54:00;;;;;;;2.2;2.2;;;;;;;2.6;100.0;100750;;;;
2023/03/12 03:55:00;;;;;;;2.2;2.2;;;;;;;2.6;100.0;100750;;;;
2023/03/12 03:56:04;;;;;;;2.2;2.2;;;;;;;2.6;100.0;100740;;;;
2023/03/12 03:57:01;;;;;;;2.2;2.2;;;;;;;2.6;100.0;100740;;;;
2023/03/12 03:58:00;;;;;;;2.2;2.2;;;;;;;2.6;100.0;100750;;;;
2023/03/12 03:59:00;;;;;;;2.2;2.2;;;;;;;2.6;100.0;100750;;;;
2023/03/12 04:00:08;;;;;;;2.2;2.2;;;;;;;2.6;100.0;100740;;;;
2023/03/12 04:01:00;;;;;;;2.2;2.2;;;;;;;2.6;100.0;100740;;;;
2023/03/12 04:02:01;;;;;;;2.8;2.7;;;;;;;2.6;100.0;100740;;;;
2023/03/12 04:03:00;;;;;;;2.8;2.7;;;;;;;2.6;100.0;100740;;;;
2023/03/12 04:04:00;;;;;;;2.8;2.7;;;;;;;2.6;100.0;100730;;;;
2023/03/12 04:05:00;;;;;;;2.8;2.7;;;;;;;2.6;100.0;100730;;;;
2023/03/12 04:06:01;;;;;;;2.8;2.7;;;;;;;2.5;100.0;100740;;;;
2023/03/12 04:07:00;;;;;;;2.8;2.7;;;;;;;2.5;100.0;100740;;;;
2023/03/12 04:08:02;;;;;;;2.8;2.7;;;;;;;2.5;100.0;100730;;;;
2023/03/12 04:09:00;;;;;;;2.8;2.7;;;;;;;2.5;100.0;100730;;;;
2023/03/12 04:10:00;;;;;;;2.8;2.7;;;;;;;2.5;100.0;100720;;;;
2023/03/12 04:11:08;;;;;;;2.8;2.7;;;;;;;2.5;100.0;100720;;;;
2023/03/12 04:12:00;;;;;;;2.8;2.7;;;;;;;2.5;100.0;100720;;;;
2023/03/12 04:13:00;;;;;;;2.8;2.7;;;;;;;2.5;100.0;100720;;;;
2023/03/12 04:14:00;;;;;;;2.8;2.7;;;;;;;2.5;100.0;100710;;;;
2023/03/12 04:15:00;;;;;;;2.8;2.7;;;;;;;2.5;100.0;100710;;;;
2023/03/12 04:16:00;;;;;;;2.8;2.7;;;;;;;2.6;100.0;100720;;;;
2023/03/12 04:17:00;;;;;;;2.8;2.7;;;;;;;2.6;100.0;100720;;;;
2023/03/12 04:18:00;;;;;;;2.8;2.7;;;;;;;2.5;100.0;100720;;;;
2023/03/12 04:19:00;;;;;;;2.8;2.7;;;;;;;2.5;100.0;100720;;;;
2023/03/12 04:20:00;;;;;;;2.8;2.7;;;;;;;2.5;100.0;100710;;;;
2023/03/12 04:21:01;;;;;;;2.8;2.7;;;;;;;2.5;100.0;100710;;;;
2023/03/12 04:22:00;;;;;;;2.7;2.6;;;;;;;2.5;100.0;100700;;;;
2023/03/12 04:23:00;;;;;;;2.7;2.6;;;;;;;2.5;100.0;100700;;;;
2023/03/12 04:24:00;;;;;;;2.7;2.6;;;;;;;2.6;100.0;100700;;;;
2023/03/12 04:25:00;;;;;;;2.7;2.6;;;;;;;2.6;100.0;100700;;;;
2023/03/12 04:26:00;;;;;;;2.7;2.6;;;;;;;2.7;100.0;100690;;;;
2023/03/12 04:27:00;;;;;;;2.7;2.6;;;;;;;2.7;100.0;100690;;;;
2023/03/12 04:28:00;;;;;;;2.7;2.6;;;;;;;2.6;100.0;100690;;;;
2023/03/12 04:29:00;;;;;;;2.7;2.6;;;;;;;2.6;100.0;100690;;;;
2023/03/12 04:30:00;;;;;;;2.7;2.6;;;;;;;2.7;100.0;100690;;;;
2023/03/12 04:31:01;;;;;;;2.7;2.6;;;;;;;2.7;100.0;100690;;;;
2023/03/12 04:32:00;;;;;;;2.7;2.6;;;;;;;2.6;100.0;100680;;;;
2023/03/12 04:33:00;;;;;;;2.7;2.6;;;;;;;2.6;100.0;100680;;;;
2023/03/12 04:34:00;;;;;;;2.7;2.6;;;;;;;2.6;100.0;100680;;;;
2023/03/12 04:35:00;;;;;;;2.7;2.6;;;;;;;2.6;100.0;100680;;;;
2023/03/12 04:36:01;;;;;;;2.7;2.6;;;;;;;2.6;100.0;100670;;;;
2023/03/12 04:37:01;;;;;;;2.7;2.6;;;;;;;2.6;100.0;100670;;;;
2023/03/12 04:38:01;;;;;;;2.7;2.6;;;;;;;2.5;100.0;100670;;;;
2023/03/12 04:39:00;;;;;;;2.7;2.6;;;;;;;2.5;100.0;100670;;;;
2023/03/12 04:40:01;;;;;;;2.7;2.6;;;;;;;2.6;100.0;100660;;;;
2023/03/12 04:41:02;;;;;;;2.7;2.6;;;;;;;2.6;100.0;100660;;;;
2023/03/12 04:42:00;;;;;;;4.3;4.1;;;;;;;2.5;100.0;100650;;;;
2023/03/12 04:43:00;;;;;;;4.3;4.1;;;;;;;2.5;100.0;100650;;;;
2023/03/12 04:44:01;;;;;;;4.3;4.1;;;;;;;2.5;100.0;100650;;;;
2023/03/12 04:45:01;;;;;;;4.3;4.1;;;;;;;2.5;100.0;100650;;;;
2023/03/12 04:46:01;;;;;;;4.3;4.1;;;;;;;2.7;100.0;100650;;;;
2023/03/12 04:47:00;;;;;;;4.3;4.1;;;;;;;2.7;100.0;100650;;;;
2023/03/12 04:48:00;;;;;;;4.3;4.1;;;;;;;2.6;100.0;100640;;;;
2023/03/12 04:49:01;;;;;;;4.3;4.1;;;;;;;2.6;100.0;100640;;;;
2023/03/12 04:50:00;;;;;;;4.3;4.1;;;;;;;2.6;100.0;100640;;;;
2023/03/12 04:51:01;;;;;;;4.3;4.1;;;;;;;2.6;100.0;100640;;;;
2023/03/12 04:52:00;;;;;;;4.3;4.1;;;;;;;2.7;100.0;100640;;;;
2023/03/12 04:53:00;;;;;;;4.3;4.1;;;;;;;2.7;100.0;100640;;;;
2023/03/12 04:54:00;;;;;;;4.3;4.1;;;;;;;2.7;100.0;100640;;;;
2023/03/12 04:55:00;;;;;;;4.3;4.1;;;;;;;2.7;100.0;100640;;;;
2023/03/12 04:56:00;;;;;;;4.3;4.1;;;;;;;2.8;100.0;100650;;;;
2023/03/12 04:57:00;;;;;;;4.3;4.1;;;;;;;2.8;100.0;100650;;;;
2023/03/12 04:58:00;;;;;;;4.3;4.1;;;;;;;2.7;100.0;100650;;;;
2023/03/12 04:59:00;;;;;;;4.3;4.1;;;;;;;2.7;100.0;100650;;;;
2023/03/12 05:00:00;;;;;;;4.3;4.1;;;;;;;2.7;100.0;100650;;;;
2023/03/12 05:01:00;;;;;;;4.3;4.1;;;;;;;2.7;100.0;100650;;;;
2023/03/12 05:02:00;;;;;;;2.6;2.5;;;;;;;2.7;100.0;100640;;;;
2023/03/12 05:03:00;;;;;;;2.6;2.5;;;;;;;2.7;100.0;100640;;;;
2023/03/12 05:04:01;;;;;;;2.6;2.5;;;;;;;2.7;100.0;100630;;;;
2023/03/12 05:05:00;;;;;;;2.6;2.5;;;;;;;2.7;100.0;100630;;;;
2023/03/12 05:06:00;;;;;;;2.6;2.5;;;;;;;2.8;100.0;100640;;;;
2023/03/12 05:07:01;;;;;;;2.6;2.5;;;;;;;2.8;100.0;100640;;;;
2023/03/12 05:08:01;;;;;;;2.6;2.5;;;;;;;2.7;100.0;100640;;;;
2023/03/12 05:09:00;;;;;;;2.6;2.5;;;;;;;2.7;100.0;100640;;;;
2023/03/12 05:10:00;;;;;;;2.6;2.5;;;;;;;2.8;100.0;100640;;;;
2023/03/12 05:11:00;;;;;;;2.6;2.5;;;;;;;2.8;100.0;100640;;;;
2023/03/12 05:12:00;;;;;;;2.6;2.5;;;;;;;2.8;100.0;100630;;;;
2023/03/12 05:13:00;;;;;;;2.6;2.5;;;;;;;2.8;100.0;100630;;;;
2023/03/12 05:14:00;;;;;;;2.6;2.5;;;;;;;3.0;100.0;100630;;;;
2023/03/12 05:15:00;;;;;;;2.6;2.5;;;;;;;3.0;100.0;100630;;;;
2023/03/12 05:16:00;;;;;;;2.6;2.5;;;;;;;2.9;100.0;100630;;;;
2023/03/12 05:17:00;;;;;;;2.6;2.5;;;;;;;2.9;100.0;100630;;;;
2023/03/12 05:18:01;;;;;;;2.6;2.5;;;;;;;2.9;100.0;100620;;;;
2023/03/12 05:19:01;;;;;;;2.6;2.5;;;;;;;2.9;100.0;100620;;;;
2023/03/12 05:20:00;;;;;;;2.6;2.5;;;;;;;2.9;100.0;100610;;;;
2023/03/12 05:21:01;;;;;;;2.6;2.5;;;;;;;2.9;100.0;100610;;;;
2023/03/12 05:22:01;;;;;;;2.8;2.7;;;;;;;2.9;100.0;100610;;;;
2023/03/12 05:23:00;;;;;;;2.8;2.7;;;;;;;2.9;100.0;100610;;;;
2023/03/12 05:24:00;;;;;;;2.8;2.7;;;;;;;2.8;100.0;100610;;;;
2023/03/12 05:25:00;;;;;;;2.8;2.7;;;;;;;2.8;100.0;100610;;;;
2023/03/12 05:26:00;;;;;;;2.8;2.7;;;;;;;2.8;100.0;100600;;;;
2023/03/12 05:27:00;;;;;;;2.8;2.7;;;;;;;2.8;100.0;100600;;;;
2023/03/12 05:28:00;;;;;;;2.8;2.7;;;;;;;2.8;100.0;100600;;;;
2023/03/12 05:29:01;;;;;;;2.8;2.7;;;;;;;2.8;100.0;100600;;;;
2023/03/12 05:30:00;;;;;;;2.8;2.7;;;;;;;2.8;100.0;100600;;;;
2023/03/12 05:31:00;;;;;;;2.8;2.7;;;;;;;2.8;100.0;100600;;;;
2023/03/12 05:32:01;;;;;;;2.8;2.7;;;;;;;2.8;100.0;100590;;;;
2023/03/12 05:33:00;;;;;;;2.8;2.7;;;;;;;2.8;100.0;100590;;;;
2023/03/12 05:34:01;;;;;;;2.8;2.7;;;;;;;2.8;100.0;100600;;;;
2023/03/12 05:35:00;;;;;;;2.8;2.7;;;;;;;2.8;100.0;100600;;;;
2023/03/12 05:36:00;;;;;;;2.8;2.7;;;;;;;2.8;100.0;100600;;;;
2023/03/12 05:37:00;;;;;;;2.8;2.7;;;;;;;2.8;100.0;100600;;;;
2023/03/12 05:38:01;;;;;;;2.8;2.7;;;;;;;2.8;100.0;100600;;;;
2023/03/12 05:39:00;;;;;;;2.8;2.7;;;;;;;2.8;100.0;100600;;;;
2023/03/12 05:40:00;;;;;;;2.8;2.7;;;;;;;2.8;100.0;100600;;;;
2023/03/12 05:41:01;;;;;;;2.8;2.7;;;;;;;2.8;100.0;100600;;;;
2023/03/12 05:42:00;;;;;;;2.8;2.7;;;;;;;2.9;100.0;100600;;;;
2023/03/12 05:43:00;;;;;;;2.8;2.7;;;;;;;2.9;100.0;100600;;;;
2023/03/12 05:44:00;;;;;;;2.8;2.7;;;;;;;2.8;100.0;100600;;;;
2023/03/12 05:45:00;;;;;;;2.8;2.7;;;;;;;2.8;100.0;100600;;;;
2023/03/12 05:46:02;;;;;;;2.8;2.7;;;;;;;2.9;100.0;100600;;;;
2023/03/12 05:47:00;;;;;;;2.8;2.7;;;;;;;2.9;100.0;100600;;;;
2023/03/12 05:48:00;;;;;;;2.8;2.7;;;;;;;2.9;100.0;100590;;;;
2023/03/12 05:49:00;;;;;;;2.8;2.7;;;;;;;2.9;100.0;100590;;;;
2023/03/12 05:50:00;;;;;;;2.8;2.7;;;;;;;2.8;100.0;100590;;;;
2023/03/12 05:51:00;;;;;;;2.8;2.7;;;;;;;2.8;100.0;100590;;;;
2023/03/12 05:52:00;;;;;;;2.8;2.7;;;;;;;2.9;100.0;100590;;;;
2023/03/12 05:53:00;;;;;;;2.8;2.7;;;;;;;2.9;100.0;100590;;;;
2023/03/12 05:54:01;;;;;;;2.8;2.7;;;;;;;2.8;100.0;100600;;;;
2023/03/12 05:55:00;;;;;;;2.8;2.7;;;;;;;2.8;100.0;100600;;;;
2023/03/12 05:56:03;;;;;;;2.8;2.7;;;;;;;2.8;100.0;100590;;;;
2023/03/12 05:57:02;;;;;;;2.8;2.7;;;;;;;2.8;100.0;100590;;;;
2023/03/12 05:58:00;;;;;;;2.8;2.7;;;;;;;2.8;100.0;100590;;;;
2023/03/12 05:59:00;;;;;;;2.8;2.7;;;;;;;2.8;100.0;100590;;;;
2023/03/12 06:00:00;;;;;;;2.8;2.7;;;;;;;2.8;100.0;100590;;;;
2023/03/12 06:01:00;;;;;;;2.8;2.7;;;;;;;2.8;100.0;100590;;;;
2023/03/12 06:02:01;;;;;;;2.7;2.6;;;;;;;2.8;100.0;100590;;;;
2023/03/12 06:03:00;;;;;;;2.7;2.6;;;;;;;2.8;100.0;100590;;;;
2023/03/12 06:04:00;;;;;;;2.7;2.6;;;;;;;2.8;100.0;100590;;;;
2023/03/12 06:05:00;;;;;;;2.7;2.6;;;;;;;2.8;100.0;100590;;;;
2023/03/12 06:06:00;;;;;;;2.7;2.6;;;;;;;2.9;100.0;100590;;;;
2023/03/12 06:07:00;;;;;;;2.7;2.6;;;;;;;2.9;100.0;100590;;;;
2023/03/12 06:08:01;;;;;;;2.7;2.6;;;;;;;2.9;100.0;100590;;;;
2023/03/12 06:09:01;;;;;;;2.7;2.6;;;;;;;2.9;100.0;100590;;;;
2023/03/12 06:10:00;;;;;;;2.7;2.6;;;;;;;2.9;100.0;100600;;;;
2023/03/12 06:11:00;;;;;;;2.7;2.6;;;;;;;2.9;100.0;100600;;;;
2023/03/12 06:12:00;;;;;;;2.7;2.6;;;;;;;2.9;100.0;100600;;;;
2023/03/12 06:13:00;;;;;;;2.7;2.6;;;;;;;2.9;100.0;100600;;;;
2023/03/12 06:14:00;;;;;;;2.7;2.6;;;;;;;3.0;100.0;100600;;;;
2023/03/12 06:15:00;;;;;;;2.7;2.6;;;;;;;3.0;100.0;100600;;;;
2023/03/12 06:16:03;;;;;;;2.7;2.6;;;;;;;3.0;100.0;100590;;;;
2023/03/12 06:17:01;;;;;;;2.7;2.6;;;;;;;3.0;100.0;100590;;;;
2023/03/12 06:18:00;;;;;;;2.7;2.6;;;;;;;3.0;100.0;100590;;;;
2023/03/12 06:19:01;;;;;;;2.7;2.6;;;;;;;3.0;100.0;100590;;;;
2023/03/12 06:20:00;;;;;;;2.7;2.6;;;;;;;2.9;100.0;100580;;;;
2023/03/12 06:21:10;;;;;;;2.5;2.5;;;;;;;2.9;100.0;100580;;;;
2023/03/12 06:22:00;;;;;;;2.5;2.5;;;;;;;3.0;100.0;100590;;;;
2023/03/12 06:23:00;;;;;;;2.5;2.5;;;;;;;3.0;100.0;100590;;;;
2023/03/12 06:24:01;;;;;;;2.5;2.5;;;;;;;3.0;100.0;100590;;;;
2023/03/12 06:25:00;;;;;;;2.5;2.5;;;;;;;3.0;100.0;100590;;;;
2023/03/12 06:26:00;;;;;;;2.5;2.5;;;;;;;3.0;100.0;100590;;;;
2023/03/12 06:27:00;;;;;;;2.5;2.5;;;;;;;3.0;100.0;100590;;;;
2023/03/12 06:28:00;;;;;;;2.5;2.5;;;;;;;3.0;100.0;100600;;;;
2023/03/12 06:29:00;;;;;;;2.5;2.5;;;;;;;3.0;100.0;100600;;;;